Time;durP1;ratioP1;P1;durP2;ratioP2;P2;SDS_P1;SDS_P2;PMS_P1;PMS_P2;Temp;Humidity;BMP_temperature;BMP_pressure;BME280_temperature;BME280_humidity;BME280_pressure;Samples;Min_cycle;Max_cycle;Signal;HPM_P1;HPM_P2
2021/05/12 00:00:10;;;;;;;15.50;11.10;;;;;;;6.33;61.46;94802.66;4980410;28;20462;-62
2021/05/12 00:02:36;;;;;;;12.23;9.30;;;;;;;6.12;61.75;94806.81;4979789;28;20547;-62
2021/05/12 00:05:01;;;;;;;15.57;11.63;;;;;;;6.24;60.62;94803.03;4979328;28;20338;-63
2021/05/12 00:07:26;;;;;;;16.52;11.70;;;;;;;6.49;60.72;94806.56;4978056;28;20109;-63
2021/05/12 00:09:52;;;;;;;16.73;11.90;;;;;;;6.11;61.26;94799.16;4977648;28;20078;-62
2021/05/12 00:12:17;;;;;;;14.88;10.80;;;;;;;5.87;62.58;94797.91;4977159;28;20111;-62
2021/05/12 00:14:43;;;;;;;17.40;13.05;;;;;;;5.85;62.82;94789.47;4979446;28;20130;-62
2021/05/12 00:17:10;;;;;;;18.95;13.57;;;;;;;5.65;63.76;94797.03;4979005;28;20471;-63
2021/05/12 00:19:38;;;;;;;20.17;14.82;;;;;;;5.68;63.42;94783.66;4979944;28;20099;-62
2021/05/12 00:24:35;;;;;;;17.63;11.60;;;;;;;5.97;62.62;94789.88;4983588;28;20169;-62
2021/05/12 00:27:01;;;;;;;20.20;13.55;;;;;;;6.05;62.14;94793.38;4980471;28;20670;-63
2021/05/12 00:29:26;;;;;;;16.30;11.45;;;;;;;5.79;62.97;94790.97;4982144;28;20107;-63
2021/05/12 00:31:52;;;;;;;16.95;12.13;;;;;;;5.80;63.02;94803.25;4982629;28;20121;-63
2021/05/12 00:34:17;;;;;;;17.20;11.20;;;;;;;5.27;65.28;94803.72;4982825;28;20074;-62
2021/05/12 00:36:42;;;;;;;18.42;11.60;;;;;;;5.49;64.65;94801.94;4965366;28;20142;-62
2021/05/12 00:39:08;;;;;;;20.80;14.57;;;;;;;5.66;64.19;94806.63;4982859;28;20292;-62
2021/05/12 00:41:37;;;;;;;20.23;13.57;;;;;;;5.49;63.95;94807.31;4983285;28;20087;-62
2021/05/12 00:44:06;;;;;;;18.35;11.93;;;;;;;5.11;65.67;94804.78;4981491;28;20536;-62
2021/05/12 00:46:32;;;;;;;17.65;12.77;;;;;;;4.87;66.46;94802.66;4982147;28;20109;-62
2021/05/12 00:48:57;;;;;;;19.38;12.65;;;;;;;4.91;66.68;94800.00;4983141;28;20123;-62
2021/05/12 00:51:23;;;;;;;23.35;13.07;;;;;;;4.83;66.93;94797.28;4982709;28;20110;-63
2021/05/12 00:53:48;;;;;;;20.42;13.05;;;;;;;4.90;66.75;94804.59;4982933;28;20074;-62
2021/05/12 00:56:14;;;;;;;23.23;13.73;;;;;;;4.79;67.18;94807.19;4983200;28;20534;-63
2021/05/12 00:58:39;;;;;;;20.17;14.90;;;;;;;5.12;66.12;94814.34;4964190;28;20602;-63
2021/05/12 01:01:05;;;;;;;19.45;12.35;;;;;;;5.01;66.49;94805.44;4978691;28;20130;-63
2021/05/12 01:03:30;;;;;;;18.88;12.45;;;;;;;4.73;67.02;94808.69;4982927;28;20107;-63
2021/05/12 01:05:55;;;;;;;14.15;10.65;;;;;;;5.02;66.42;94800.84;4982772;28;20487;-62
2021/05/12 01:08:21;;;;;;;16.00;12.13;;;;;;;4.68;67.50;94803.66;4980426;28;20114;-62
2021/05/12 01:10:46;;;;;;;15.88;10.85;;;;;;;4.77;67.40;94800.66;4982045;28;20699;-62
2021/05/12 01:13:13;;;;;;;16.65;11.90;;;;;;;4.90;66.91;94807.28;4979930;28;20530;-62
2021/05/12 01:15:42;;;;;;;14.27;10.80;;;;;;;4.86;66.97;94809.94;4982963;28;20106;-62
2021/05/12 01:18:17;;;;;;;18.40;12.18;;;;;;;4.58;67.63;94804.34;4980044;28;20233;-63
2021/05/12 01:20:50;;;;;;;17.35;12.55;;;;;;;4.72;67.65;94804.47;4982284;28;20078;-62
2021/05/12 01:23:15;;;;;;;16.85;10.82;;;;;;;4.52;68.47;94792.41;4978641;28;20103;-63
2021/05/12 01:25:41;;;;;;;14.75;10.15;;;;;;;4.33;68.86;94812.16;4982422;28;20088;-62
2021/05/12 01:28:06;;;;;;;21.55;13.70;;;;;;;4.68;68.11;94800.97;4982191;28;20122;-63
2021/05/12 01:30:31;;;;;;;18.73;13.70;;;;;;;4.25;69.45;94815.88;4980423;28;20102;-63
2021/05/12 01:33:00;;;;;;;19.42;11.75;;;;;;;4.30;69.54;94818.22;4979077;28;20322;-62
2021/05/12 01:35:25;;;;;;;16.25;10.90;;;;;;;4.30;69.62;94821.66;4982290;28;20801;-62
2021/05/12 01:37:51;;;;;;;14.90;11.07;;;;;;;4.24;69.19;94815.13;4981903;28;20134;-62
2021/05/12 01:40:16;;;;;;;18.05;12.13;;;;;;;4.24;68.92;94823.16;4986129;28;20102;-62
2021/05/12 01:42:41;;;;;;;22.67;14.82;;;;;;;4.15;69.22;94819.19;4981155;28;20102;-62
2021/05/12 01:45:08;;;;;;;22.38;15.38;;;;;;;3.92;69.94;94817.41;4982074;28;20489;-62
2021/05/12 01:47:34;;;;;;;23.45;14.05;;;;;;;3.67;71.09;94802.94;4977378;28;20436;-62
2021/05/12 01:50:01;;;;;;;22.15;14.85;;;;;;;3.80;70.59;94815.00;4981605;28;20165;-63
2021/05/12 01:52:27;;;;;;;17.98;13.80;;;;;;;3.70;71.09;94819.06;4980308;28;20099;-62
2021/05/12 01:54:52;;;;;;;23.45;17.25;;;;;;;3.55;71.47;94819.22;4980474;28;20110;-62
2021/05/12 01:57:17;;;;;;;16.10;11.23;;;;;;;3.82;70.65;94822.66;4986148;28;20677;-62
2021/05/12 01:59:43;;;;;;;20.55;14.25;;;;;;;4.00;69.73;94826.31;4977989;28;20189;-62
2021/05/12 02:02:08;;;;;;;15.25;10.82;;;;;;;4.05;69.74;94823.31;4983143;28;21018;-63
2021/05/12 02:04:37;;;;;;;20.55;12.52;;;;;;;4.07;69.54;94830.97;4980701;28;20106;-62
2021/05/12 02:07:02;;;;;;;13.73;9.07;;;;;;;4.05;69.70;94831.34;4981964;28;20540;-62
2021/05/12 02:09:28;;;;;;;19.75;14.23;;;;;;;4.02;69.33;94830.19;4975863;28;20122;-62
2021/05/12 02:11:53;;;;;;;20.45;15.18;;;;;;;3.99;69.54;94835.47;4963836;28;20180;-62
2021/05/12 02:14:19;;;;;;;21.00;11.50;;;;;;;3.98;69.54;94828.59;4985780;28;20079;-63
2021/05/12 02:16:44;;;;;;;20.88;14.82;;;;;;;4.22;69.01;94825.41;4981991;28;20095;-62
2021/05/12 02:19:09;;;;;;;19.25;13.68;;;;;;;4.07;68.91;94829.06;4981429;28;20142;-62
2021/05/12 02:21:35;;;;;;;25.40;18.80;;;;;;;3.87;68.87;94828.47;4981173;28;20174;-62
2021/05/12 02:24:00;;;;;;;20.50;14.80;;;;;;;3.79;69.25;94821.44;4983278;28;20106;-62
2021/05/12 02:26:26;;;;;;;19.05;11.90;;;;;;;3.39;70.90;94825.53;4979730;28;20086;-62
2021/05/12 02:28:51;;;;;;;30.42;20.95;;;;;;;3.66;70.40;94818.22;4980486;28;20137;-62
2021/05/12 02:31:17;;;;;;;26.02;16.60;;;;;;;3.42;70.41;94811.41;4980566;28;20129;-62
2021/05/12 02:33:42;;;;;;;26.58;17.90;;;;;;;3.62;70.33;94813.97;4981111;28;20141;-62
2021/05/12 02:36:08;;;;;;;25.20;19.50;;;;;;;3.54;70.30;94821.13;4980626;28;20335;-62
2021/05/12 02:38:33;;;;;;;33.63;24.67;;;;;;;3.70;69.66;94819.06;4980128;28;20538;-62
2021/05/12 02:40:58;;;;;;;25.75;18.38;;;;;;;3.66;69.85;94817.44;4981064;28;20087;-62
2021/05/12 02:43:24;;;;;;;26.67;17.00;;;;;;;3.88;69.94;94823.88;4979933;28;20355;-62
2021/05/12 02:45:49;;;;;;;31.38;20.10;;;;;;;3.40;70.87;94807.56;4979175;28;20078;-62
2021/05/12 02:48:15;;;;;;;19.65;14.25;;;;;;;3.73;69.87;94825.56;4978854;28;20114;-62
2021/05/12 02:50:41;;;;;;;26.80;19.30;;;;;;;3.81;69.49;94819.19;4980241;28;20193;-62
2021/05/12 02:53:08;;;;;;;26.08;17.13;;;;;;;4.18;68.11;94821.94;4981207;28;20086;-63
2021/05/12 02:55:33;;;;;;;25.67;17.02;;;;;;;4.63;66.67;94819.28;4980444;28;20181;-63
2021/05/12 02:57:59;;;;;;;25.90;17.08;;;;;;;4.94;65.67;94824.16;4983867;28;20092;-62
2021/05/12 03:00:27;;;;;;;23.52;14.10;;;;;;;4.17;67.13;94827.66;4975110;28;20679;-63
2021/05/12 03:02:52;;;;;;;25.20;18.83;;;;;;;4.23;66.65;94834.22;4979025;28;20630;-63
2021/05/12 03:05:18;;;;;;;24.98;16.23;;;;;;;4.25;66.76;94829.28;4983067;28;20083;-63
2021/05/12 03:07:43;;;;;;;24.63;18.25;;;;;;;4.14;66.80;94828.38;4978597;28;20106;-63
2021/05/12 03:10:11;;;;;;;25.40;17.33;;;;;;;4.19;66.88;94828.06;4986960;28;20070;-63
2021/05/12 03:12:37;;;;;;;22.17;15.40;;;;;;;4.18;66.64;94826.53;4982806;28;20077;-62
2021/05/12 03:15:05;;;;;;;26.63;17.65;;;;;;;4.44;66.18;94828.31;4964923;28;20130;-63
2021/05/12 03:17:31;;;;;;;25.15;16.83;;;;;;;4.50;65.61;94826.84;4983844;28;20644;-62
2021/05/12 03:19:56;;;;;;;27.70;19.27;;;;;;;4.54;65.68;94824.97;4991854;28;20103;-63
2021/05/12 03:22:21;;;;;;;22.05;15.70;;;;;;;4.78;64.43;94816.38;4987456;28;20082;-63
2021/05/12 03:24:47;;;;;;;26.90;15.20;;;;;;;4.80;64.70;94814.09;4987677;28;20066;-63
2021/05/12 03:27:12;;;;;;;21.30;13.15;;;;;;;4.65;64.58;94815.13;4991157;28;20107;-63
2021/05/12 03:29:38;;;;;;;29.60;20.30;;;;;;;4.94;64.20;94807.31;4987158;28;20540;-62
2021/05/12 03:32:03;;;;;;;31.48;22.13;;;;;;;4.37;64.89;94820.97;4987514;28;20861;-63
2021/05/12 03:34:29;;;;;;;24.90;15.98;;;;;;;4.39;65.56;94809.88;4993358;28;20098;-63
2021/05/12 03:36:54;;;;;;;28.60;20.40;;;;;;;4.30;66.01;94823.56;4986197;28;20148;-63
2021/05/12 03:39:20;;;;;;;31.65;21.52;;;;;;;4.37;65.88;94822.88;4986560;28;20106;-63
2021/05/12 03:41:45;;;;;;;34.03;23.73;;;;;;;4.16;66.49;94828.78;4987730;28;20082;-62
2021/05/12 03:44:11;;;;;;;28.60;17.92;;;;;;;4.33;66.23;94828.22;4988887;28;20099;-62
2021/05/12 03:46:36;;;;;;;35.22;22.35;;;;;;;4.39;65.98;94824.03;4983288;28;20588;-63
2021/05/12 03:49:03;;;;;;;33.47;20.48;;;;;;;4.24;66.55;94830.41;4987134;28;20673;-62
2021/05/12 03:51:29;;;;;;;30.13;20.35;;;;;;;4.33;66.23;94833.56;4985631;28;20131;-63
2021/05/12 03:53:54;;;;;;;27.65;18.52;;;;;;;4.46;65.36;94826.81;4989651;28;20098;-62
2021/05/12 03:56:19;;;;;;;27.38;17.38;;;;;;;4.72;64.53;94830.50;4988952;28;20618;-63
2021/05/12 03:58:45;;;;;;;31.98;20.65;;;;;;;4.93;63.81;94830.66;4985564;28;20106;-62
2021/05/12 04:01:10;;;;;;;29.45;20.48;;;;;;;4.87;63.72;94824.09;4991123;28;20079;-63
2021/05/12 04:03:36;;;;;;;32.53;22.42;;;;;;;4.63;64.76;94836.16;4990842;28;20105;-63
2021/05/12 04:06:01;;;;;;;40.35;23.10;;;;;;;4.74;64.66;94841.63;4991272;28;20169;-62
2021/05/12 04:08:26;;;;;;;32.95;23.00;;;;;;;5.00;63.29;94841.47;4989107;28;20102;-63
2021/05/12 04:10:52;;;;;;;36.25;24.23;;;;;;;4.20;65.37;94840.31;4989159;28;20149;-62
2021/05/12 04:13:19;;;;;;;24.10;15.00;;;;;;;4.20;65.59;94843.00;4991394;28;20634;-63
2021/05/12 04:15:44;;;;;;;29.85;20.60;;;;;;;4.38;65.07;94851.22;4988213;28;20166;-63
2021/05/12 04:18:10;;;;;;;30.38;19.85;;;;;;;4.40;65.20;94849.72;4990005;28;20515;-63
2021/05/12 04:20:35;;;;;;;25.17;16.50;;;;;;;4.13;65.57;94849.03;4989314;28;20106;-62
2021/05/12 04:23:00;;;;;;;32.78;19.92;;;;;;;3.97;65.98;94848.47;4988299;28;20114;-63
2021/05/12 04:25:26;;;;;;;23.65;15.80;;;;;;;4.06;65.96;94851.63;4990046;28;20086;-63
2021/05/12 04:27:51;;;;;;;27.05;17.40;;;;;;;4.32;65.29;94850.75;4988355;28;20193;-63
2021/05/12 04:30:18;;;;;;;25.33;16.92;;;;;;;4.16;65.30;94858.25;4988258;28;20086;-63
2021/05/12 04:32:44;;;;;;;25.75;16.33;;;;;;;4.07;65.80;94853.16;4990565;28;20178;-63
2021/05/12 04:35:14;;;;;;;25.15;15.27;;;;;;;4.06;65.88;94854.31;4989931;28;20602;-63
2021/05/12 04:37:40;;;;;;;23.90;13.75;;;;;;;4.21;65.02;94856.00;4988954;28;20540;-63
2021/05/12 04:40:07;;;;;;;24.65;15.48;;;;;;;4.03;65.81;94849.69;4972393;28;20636;-63
2021/05/12 04:42:32;;;;;;;27.38;18.88;;;;;;;4.42;64.41;94855.47;4989739;28;20102;-63
2021/05/12 04:44:57;;;;;;;25.00;14.63;;;;;;;4.46;64.24;94864.31;4990103;28;20110;-63
2021/05/12 04:47:23;;;;;;;19.30;12.60;;;;;;;4.25;64.39;94866.78;4983772;28;20565;-63
2021/05/12 04:49:48;;;;;;;24.95;16.58;;;;;;;4.25;64.33;94861.44;4988567;28;20118;-63
2021/05/12 04:52:14;;;;;;;25.20;16.33;;;;;;;4.52;63.51;94862.84;4989597;28;20106;-62
2021/05/12 04:54:39;;;;;;;20.40;12.48;;;;;;;4.16;63.95;94866.28;4989135;28;20107;-63
2021/05/12 04:57:05;;;;;;;20.13;13.68;;;;;;;4.32;64.11;94866.84;4990044;28;20516;-63
2021/05/12 04:59:30;;;;;;;21.23;15.05;;;;;;;4.56;63.29;94866.34;4989318;28;20110;-63
2021/05/12 05:01:56;;;;;;;16.98;11.23;;;;;;;4.64;62.13;94869.88;4989849;28;20078;-62
2021/05/12 05:04:23;;;;;;;18.85;12.80;;;;;;;4.59;62.50;94859.47;4988516;28;20111;-63
2021/05/12 05:06:49;;;;;;;24.20;15.88;;;;;;;4.54;62.77;94867.84;4988732;28;20467;-63
2021/05/12 05:09:14;;;;;;;15.57;11.07;;;;;;;4.39;63.00;94861.56;4990095;28;20122;-64
2021/05/12 05:11:40;;;;;;;19.90;12.32;;;;;;;4.39;63.26;94860.78;4988822;28;20114;-63
2021/05/12 05:14:05;;;;;;;21.50;14.85;;;;;;;4.43;63.46;94865.06;4989210;28;20116;-63
2021/05/12 05:16:32;;;;;;;23.15;14.15;;;;;;;4.73;62.17;94853.50;4986999;28;20125;-63
2021/05/12 05:18:57;;;;;;;21.00;14.65;;;;;;;4.65;62.32;94865.28;4988509;28;20448;-63
2021/05/12 05:21:23;;;;;;;21.10;12.55;;;;;;;4.83;61.62;94864.31;4989261;28;20087;-63
2021/05/12 05:23:48;;;;;;;20.83;11.48;;;;;;;4.67;62.16;94873.72;4988915;28;20099;-63
2021/05/12 05:26:13;;;;;;;16.70;10.98;;;;;;;4.72;61.84;94876.09;4987360;28;20137;-63
2021/05/12 05:28:39;;;;;;;18.10;11.75;;;;;;;4.58;62.80;94874.78;4989533;28;20094;-63
2021/05/12 05:31:04;;;;;;;23.65;14.25;;;;;;;4.84;62.40;94886.53;4988035;28;20118;-63
2021/05/12 05:33:30;;;;;;;16.27;11.95;;;;;;;4.51;62.71;94872.03;4987964;28;20587;-63
2021/05/12 05:35:55;;;;;;;17.95;11.75;;;;;;;4.41;63.23;94877.28;4989007;28;20106;-63
2021/05/12 05:38:21;;;;;;;18.92;11.80;;;;;;;4.56;62.63;94879.75;4987844;28;20183;-63
2021/05/12 05:40:46;;;;;;;18.73;13.20;;;;;;;4.77;62.03;94887.22;4987258;28;20519;-62
2021/05/12 05:43:13;;;;;;;23.08;13.38;;;;;;;4.63;61.60;94889.75;4989074;28;20114;-63
2021/05/12 05:45:40;;;;;;;15.20;9.48;;;;;;;4.56;62.50;94877.06;4987392;28;20071;-63
2021/05/12 05:48:06;;;;;;;17.55;9.60;;;;;;;4.59;63.02;94886.28;4982552;28;20121;-63
2021/05/12 05:50:31;;;;;;;16.98;11.38;;;;;;;4.80;62.86;94894.53;4986465;28;20138;-63
2021/05/12 05:52:58;;;;;;;17.85;11.45;;;;;;;4.83;62.54;94901.06;4988487;28;20083;-63
2021/05/12 05:55:23;;;;;;;18.25;10.88;;;;;;;4.62;63.05;94893.56;4988326;28;20094;-63
2021/05/12 05:57:50;;;;;;;17.90;13.13;;;;;;;5.10;62.44;94899.00;4987341;28;20704;-63
2021/05/12 06:00:16;;;;;;;15.90;8.90;;;;;;;4.79;61.37;94901.03;4985873;28;20121;-63
2021/05/12 06:02:41;;;;;;;18.95;11.73;;;;;;;4.96;61.91;94891.63;4983534;28;20194;-63
2021/05/12 06:05:07;;;;;;;21.35;12.55;;;;;;;5.38;61.64;94895.81;4988806;28;20086;-64
2021/05/12 06:07:33;;;;;;;19.42;12.05;;;;;;;5.33;61.33;94899.63;4986819;28;20103;-63
2021/05/12 06:09:58;;;;;;;16.58;10.88;;;;;;;5.58;59.91;94893.66;4988247;28;20075;-63
2021/05/12 06:12:24;;;;;;;16.27;9.98;;;;;;;5.82;59.37;94887.66;4987569;28;20110;-63
2021/05/12 06:14:50;;;;;;;16.35;10.70;;;;;;;5.82;58.97;94894.94;4984494;28;20484;-63
2021/05/12 06:17:15;;;;;;;14.57;8.68;;;;;;;5.97;57.07;94894.66;4988167;28;20173;-64
2021/05/12 06:19:41;;;;;;;13.38;9.27;;;;;;;5.79;58.72;94887.66;4986420;28;20099;-63
2021/05/12 06:22:06;;;;;;;13.85;9.00;;;;;;;5.62;58.20;94902.50;4987667;28;20083;-63
2021/05/12 06:24:32;;;;;;;20.13;10.45;;;;;;;6.15;58.25;94899.38;4987860;28;20122;-63
2021/05/12 06:26:57;;;;;;;14.43;9.57;;;;;;;5.85;59.40;94907.66;4987208;28;20099;-63
2021/05/12 06:29:23;;;;;;;18.33;8.48;;;;;;;5.75;58.89;94911.81;4987798;28;20138;-63
2021/05/12 06:31:48;;;;;;;15.60;8.02;;;;;;;5.54;59.92;94895.56;4986127;28;20542;-63
2021/05/12 06:34:14;;;;;;;16.52;9.13;;;;;;;5.96;58.46;94911.16;4987666;28;20082;-63
2021/05/12 06:36:39;;;;;;;13.43;7.75;;;;;;;5.74;58.94;94912.94;4986452;28;20279;-63
2021/05/12 06:39:07;;;;;;;13.07;7.95;;;;;;;5.81;57.90;94907.59;4986565;28;20437;-63
2021/05/12 06:41:33;;;;;;;13.07;7.65;;;;;;;5.65;58.25;94915.19;4981839;28;20617;-63
2021/05/12 06:43:59;;;;;;;9.73;5.97;;;;;;;5.59;58.17;94922.06;4986474;28;20098;-63
2021/05/12 06:46:25;;;;;;;12.07;7.22;;;;;;;6.09;57.06;94923.13;4986024;28;20443;-63
2021/05/12 06:48:51;;;;;;;11.98;6.93;;;;;;;5.94;57.71;94918.81;4985949;28;20114;-63
2021/05/12 06:51:17;;;;;;;11.55;6.53;;;;;;;6.14;55.56;94921.97;4987151;28;20571;-63
2021/05/12 06:53:42;;;;;;;11.63;6.82;;;;;;;5.87;56.41;94921.47;4987704;28;20082;-63
2021/05/12 06:56:08;;;;;;;13.07;7.15;;;;;;;5.99;56.76;94926.53;4986477;28;20110;-63
2021/05/12 06:58:34;;;;;;;13.63;7.72;;;;;;;5.86;56.81;94928.75;4991443;28;20629;-63
2021/05/12 07:01:00;;;;;;;13.38;8.05;;;;;;;6.07;57.14;94930.03;4987827;28;20083;-63
2021/05/12 07:03:27;;;;;;;18.55;6.78;;;;;;;6.60;55.95;94942.94;4987535;28;20192;-67
2021/05/12 07:05:52;;;;;;;14.40;8.70;;;;;;;6.62;55.37;94928.00;4987150;28;20160;-63
2021/05/12 07:08:18;;;;;;;13.30;7.18;;;;;;;6.80;53.86;94923.44;4986460;28;20107;-64
2021/05/12 07:10:44;;;;;;;10.25;6.68;;;;;;;6.76;54.67;94935.31;4987468;28;20144;-63
2021/05/12 07:13:09;;;;;;;12.10;6.40;;;;;;;6.44;55.10;94935.19;4987110;28;20156;-63
2021/05/12 07:15:35;;;;;;;12.95;7.20;;;;;;;6.94;54.86;94933.47;4983891;28;20102;-63
2021/05/12 07:18:00;;;;;;;13.98;6.90;;;;;;;7.22;53.45;94934.63;4985900;28;20106;-63
2021/05/12 07:20:26;;;;;;;8.60;5.60;;;;;;;7.12;50.67;94935.41;4985504;28;20110;-64
2021/05/12 07:22:52;;;;;;;12.93;6.28;;;;;;;7.27;51.48;94934.28;4986534;28;20107;-63
2021/05/12 07:25:17;;;;;;;11.38;5.38;;;;;;;6.89;52.32;94931.13;4984230;28;20090;-63
2021/05/12 07:27:43;;;;;;;12.65;6.82;;;;;;;6.91;53.55;94928.81;4982622;28;20150;-63
2021/05/12 07:30:09;;;;;;;9.38;5.00;;;;;;;7.42;51.02;94918.91;4988078;28;20087;-63
2021/05/12 07:32:34;;;;;;;17.42;5.65;;;;;;;7.31;53.24;94933.09;4990806;28;20113;-63
2021/05/12 07:35:00;;;;;;;14.80;6.47;;;;;;;7.81;51.55;94918.91;4980940;28;20099;-63
2021/05/12 07:37:25;;;;;;;7.43;4.28;;;;;;;7.49;50.18;94929.66;4989328;28;20514;-65
2021/05/12 07:39:51;;;;;;;11.43;4.63;;;;;;;7.15;50.64;94927.31;4985220;28;20576;-63
2021/05/12 07:42:18;;;;;;;9.77;4.45;;;;;;;7.72;49.04;94926.56;4987826;28;20110;-63
2021/05/12 07:44:44;;;;;;;11.30;5.07;;;;;;;7.87;50.85;94920.78;4986569;28;20811;-63
2021/05/12 07:47:09;;;;;;;6.63;4.15;;;;;;;7.94;49.37;94922.69;4984033;28;20102;-63
2021/05/12 07:49:37;;;;;;;9.05;4.93;;;;;;;7.93;48.56;94923.09;4986688;28;20110;-63
2021/05/12 07:52:04;;;;;;;8.63;3.25;;;;;;;8.14;48.76;94917.66;4984629;28;20217;-63
2021/05/12 07:54:30;;;;;;;6.43;4.20;;;;;;;7.88;50.80;94916.19;4982253;28;20111;-63
2021/05/12 07:56:55;;;;;;;11.10;4.68;;;;;;;7.53;49.34;94906.94;4986098;28;20433;-63
2021/05/12 07:59:21;;;;;;;13.52;4.47;;;;;;;7.74;48.67;94916.97;4992191;28;20172;-63
2021/05/12 08:01:47;;;;;;;4.63;3.05;;;;;;;7.24;48.76;94930.41;4987971;28;20087;-63
2021/05/12 08:04:13;;;;;;;10.45;4.55;;;;;;;7.59;48.48;94924.28;4982619;28;20110;-64
2021/05/12 08:06:38;;;;;;;4.63;3.25;;;;;;;7.66;47.00;94928.16;4986533;28;20121;-63
2021/05/12 08:09:05;;;;;;;11.57;4.10;;;;;;;7.67;47.33;94929.69;4986317;28;20095;-63
2021/05/12 08:11:31;;;;;;;8.73;3.85;;;;;;;7.26;47.78;94932.72;4985205;28;20713;-63
2021/05/12 08:13:56;;;;;;;6.88;3.83;;;;;;;7.42;48.00;94925.03;4987732;28;20075;-63
2021/05/12 08:16:22;;;;;;;6.93;3.78;;;;;;;7.94;48.06;94921.94;4987171;28;20585;-63
2021/05/12 08:18:47;;;;;;;6.88;3.15;;;;;;;7.48;49.00;94918.13;4987317;28;20106;-64
2021/05/12 08:21:13;;;;;;;5.90;2.83;;;;;;;7.35;46.13;94922.34;4987994;28;20086;-63
2021/05/12 08:23:38;;;;;;;7.22;2.70;;;;;;;7.42;46.44;94916.19;4984378;28;20148;-63
2021/05/12 08:26:04;;;;;;;3.97;2.47;;;;;;;7.31;45.40;94924.25;4979515;28;20595;-63
2021/05/12 08:28:29;;;;;;;7.38;3.83;;;;;;;7.59;45.68;94912.72;4987181;28;20231;-63
2021/05/12 08:30:56;;;;;;;10.55;3.40;;;;;;;8.38;47.65;94916.03;4985007;28;20172;-63
2021/05/12 08:33:22;;;;;;;5.30;2.63;;;;;;;8.53;43.02;94914.06;4986489;28;20114;-63
2021/05/12 08:35:48;;;;;;;6.55;2.92;;;;;;;8.59;44.59;94915.97;4986003;28;20571;-63
2021/05/12 08:38:15;;;;;;;6.70;3.40;;;;;;;8.48;46.04;94912.53;4985608;28;20087;-63
2021/05/12 08:40:42;;;;;;;10.55;4.07;;;;;;;9.18;48.57;94921.44;4985329;28;20081;-63
2021/05/12 08:43:07;;;;;;;8.98;4.18;;;;;;;9.68;44.64;94922.97;4964007;28;20277;-64
2021/05/12 08:45:33;;;;;;;9.45;3.63;;;;;;;9.56;44.27;94919.59;4981146;28;20079;-63
2021/05/12 08:47:58;;;;;;;11.50;3.30;;;;;;;9.41;42.87;94917.41;4980141;28;20600;-63
2021/05/12 08:50:24;;;;;;;7.55;3.80;;;;;;;9.15;47.30;94922.22;4980887;28;20573;-63
2021/05/12 08:52:50;;;;;;;5.38;3.10;;;;;;;8.93;45.74;94918.88;4980235;28;20118;-63
2021/05/12 08:55:16;;;;;;;7.75;4.20;;;;;;;9.70;45.60;94918.75;4981316;28;20520;-63
2021/05/12 08:57:41;;;;;;;8.10;3.47;;;;;;;10.28;44.34;94918.94;4965640;28;20392;-63
2021/05/12 09:00:07;;;;;;;5.90;3.25;;;;;;;10.17;43.20;94920.97;4982232;28;20179;-63
2021/05/12 09:02:33;;;;;;;6.95;4.07;;;;;;;10.19;42.89;94918.66;4981553;28;20171;-63
2021/05/12 09:04:58;;;;;;;9.23;3.80;;;;;;;10.15;42.88;94924.09;4979565;28;20074;-63
2021/05/12 09:07:23;;;;;;;7.03;3.47;;;;;;;9.84;41.83;94934.03;4982665;28;20107;-63
2021/05/12 09:09:50;;;;;;;6.60;3.50;;;;;;;9.47;42.75;94927.41;4979682;28;20367;-62
2021/05/12 09:12:15;;;;;;;7.53;4.15;;;;;;;9.74;44.06;94940.31;4982865;28;20571;-62
2021/05/12 09:14:41;;;;;;;7.25;3.50;;;;;;;9.81;41.32;94929.44;4970751;28;20104;-63
2021/05/12 09:17:06;;;;;;;7.65;4.28;;;;;;;9.78;42.28;94922.16;4962624;28;20099;-63
2021/05/12 09:19:32;;;;;;;8.50;4.45;;;;;;;10.13;42.63;94926.44;4973652;28;20369;-63
2021/05/12 09:22:00;;;;;;;6.18;3.15;;;;;;;10.10;43.50;94927.25;4982313;28;20606;-63
2021/05/12 09:24:35;;;;;;;9.63;4.53;;;;;;;10.34;42.54;94931.63;4978587;28;20114;-63
2021/05/12 09:27:04;;;;;;;8.45;4.20;;;;;;;9.78;44.40;94936.44;4976934;28;20126;-63
2021/05/12 09:29:41;;;;;;;9.25;4.00;;;;;;;9.70;41.81;94928.75;4980305;28;20095;-63
2021/05/12 09:32:07;;;;;;;7.15;3.70;;;;;;;10.24;42.59;94927.06;4981032;28;20106;-63
2021/05/12 09:35:02;;;;;;;7.28;3.50;;;;;;;10.28;39.67;94929.75;4981612;28;20113;-64
2021/05/12 09:37:32;;;;;;;6.07;3.70;;;;;;;10.62;42.04;94927.03;4981686;28;20063;-63
2021/05/12 09:39:58;;;;;;;10.02;4.05;;;;;;;11.04;39.08;94930.38;4979692;28;20108;-63
2021/05/12 09:42:24;;;;;;;6.50;3.60;;;;;;;11.40;38.83;94926.00;4981905;28;20153;-63
2021/05/12 09:45:08;;;;;;;9.93;3.63;;;;;;;11.02;39.99;94927.31;4981107;28;20090;-63
2021/05/12 09:47:34;;;;;;;4.68;3.33;;;;;;;10.46;39.42;94922.19;4980036;28;20118;-63
2021/05/12 09:50:01;;;;;;;7.90;3.95;;;;;;;10.26;41.97;94922.06;4981470;28;20119;-63
2021/05/12 09:52:29;;;;;;;7.72;3.75;;;;;;;10.46;39.95;94927.59;4942555;28;20106;-63
2021/05/12 09:55:03;;;;;;;6.55;3.75;;;;;;;9.93;42.87;94925.47;4967549;28;20164;-63
2021/05/12 09:57:28;;;;;;;8.15;3.78;;;;;;;10.01;42.47;94922.31;4977239;28;20131;-63
2021/05/12 09:59:54;;;;;;;6.68;3.85;;;;;;;9.77;42.51;94921.38;4980245;28;20102;-63
2021/05/12 10:02:20;;;;;;;5.80;3.90;;;;;;;9.73;42.61;94933.38;4980119;28;20548;-63
2021/05/12 10:04:47;;;;;;;8.35;4.72;;;;;;;9.80;42.92;94934.09;4981597;28;20491;-63
2021/05/12 10:07:19;;;;;;;9.68;4.32;;;;;;;10.42;42.21;94929.59;4980307;28;20137;-63
2021/05/12 10:09:45;;;;;;;9.77;4.32;;;;;;;10.88;39.65;94928.28;4975579;28;20177;-63
2021/05/12 10:12:20;;;;;;;7.50;4.00;;;;;;;11.13;39.96;94926.00;4980828;28;20111;-63
2021/05/12 10:14:56;;;;;;;9.45;4.20;;;;;;;11.72;39.82;94932.88;4975315;28;20962;-63
2021/05/12 10:17:22;;;;;;;10.98;6.55;;;;;;;12.01;38.06;94931.22;4980216;28;20102;-64
2021/05/12 10:19:49;;;;;;;6.50;3.30;;;;;;;12.51;34.63;94924.13;4980087;28;20095;-64
2021/05/12 10:22:15;;;;;;;8.27;3.97;;;;;;;12.58;37.78;94919.31;4987599;28;20094;-63
2021/05/12 10:24:42;;;;;;;9.80;4.57;;;;;;;12.73;37.83;94913.59;4988813;28;20074;-64
2021/05/12 10:27:12;;;;;;;5.22;3.38;;;;;;;12.76;35.80;94929.03;4982869;28;20463;-64
2021/05/12 10:29:39;;;;;;;9.90;3.72;;;;;;;12.95;35.61;94911.19;4982565;28;20099;-64
2021/05/12 10:32:15;;;;;;;9.40;4.05;;;;;;;12.20;37.61;94918.09;4978659;28;20582;-63
2021/05/12 10:34:40;;;;;;;6.47;3.80;;;;;;;11.89;38.79;94920.94;4984637;28;20129;-63
2021/05/12 10:37:15;;;;;;;5.82;3.38;;;;;;;11.43;38.10;94921.69;4981033;28;20086;-63
2021/05/12 10:39:42;;;;;;;6.28;3.88;;;;;;;11.23;38.62;94910.78;4983784;28;20507;-63
2021/05/12 10:42:08;;;;;;;7.85;4.32;;;;;;;11.07;42.01;94921.47;4984923;28;20100;-63
2021/05/12 10:44:40;;;;;;;9.05;4.10;;;;;;;10.64;41.32;94908.44;4982584;28;20575;-63
2021/05/12 10:47:05;;;;;;;9.05;4.63;;;;;;;10.50;41.87;94916.75;4979311;28;20110;-64
2021/05/12 10:49:31;;;;;;;10.10;4.38;;;;;;;10.44;42.74;94913.72;4984272;28;21735;-64
2021/05/12 10:51:56;;;;;;;10.40;4.32;;;;;;;10.49;41.07;94917.94;4985050;28;20188;-64
2021/05/12 10:54:44;;;;;;;6.93;4.18;;;;;;;10.81;41.09;94921.03;4984865;28;20439;-64
2021/05/12 10:57:10;;;;;;;6.63;4.28;;;;;;;10.66;41.36;94920.44;4984963;28;20721;-65
2021/05/12 10:59:41;;;;;;;6.85;4.30;;;;;;;10.78;41.10;94924.53;4985174;28;20768;-64
2021/05/12 11:02:06;;;;;;;8.98;4.07;;;;;;;10.59;40.92;94922.44;4983757;28;20108;-64
2021/05/12 11:04:32;;;;;;;8.40;4.65;;;;;;;10.50;41.09;94922.16;4980932;28;20618;-63
2021/05/12 11:06:57;;;;;;;7.15;4.30;;;;;;;11.05;39.74;94910.28;4983799;28;20105;-65
2021/05/12 11:09:45;;;;;;;6.80;4.25;;;;;;;11.15;42.10;94912.06;4983528;28;20110;-64
2021/05/12 11:12:12;;;;;;;8.35;4.28;;;;;;;11.20;40.69;94901.53;4979146;28;20134;-65
2021/05/12 11:14:38;;;;;;;9.02;4.50;;;;;;;11.22;39.79;94910.00;4977760;28;20106;-65
2021/05/12 11:17:14;;;;;;;9.60;5.50;;;;;;;11.82;39.89;94910.22;4982985;28;20445;-65
2021/05/12 11:19:44;;;;;;;11.13;4.05;;;;;;;11.88;39.17;94899.69;4984174;28;20117;-70
2021/05/12 11:22:46;;;;;;;8.90;4.15;;;;;;;11.59;41.77;94899.38;4984753;28;20427;-65
2021/05/12 11:28:33;;;;;;;8.25;4.35;;;;;;;11.92;39.42;94900.41;4982118;28;20110;-64
2021/05/12 11:33:30;;;;;;;5.72;3.50;;;;;;;12.52;35.27;94893.81;4980791;28;20118;-65